sensor_id;sensor_type;location;lat;lon;timestamp;temperature;humidity
70826;SHT31;58446;41.490;22.098;2022-12-10T00:01:44;14.51;82.88
70826;SHT31;58446;41.490;22.098;2022-12-10T00:04:11;14.51;83.04
70826;SHT31;58446;41.490;22.098;2022-12-10T00:06:38;14.48;83.27
70826;SHT31;58446;41.490;22.098;2022-12-10T00:09:06;14.48;83.67
70826;SHT31;58446;41.490;22.098;2022-12-10T00:11:33;14.41;83.98
70826;SHT31;58446;41.490;22.098;2022-12-10T00:13:59;14.37;84.33
70826;SHT31;58446;41.490;22.098;2022-12-10T00:16:26;14.36;84.41
70826;SHT31;58446;41.490;22.098;2022-12-10T00:18:53;14.33;84.64
70826;SHT31;58446;41.490;22.098;2022-12-10T00:21:34;14.32;84.80
70826;SHT31;58446;41.490;22.098;2022-12-10T00:24:01;14.27;84.92
70826;SHT31;58446;41.490;22.098;2022-12-10T00:26:32;14.25;84.90
70826;SHT31;58446;41.490;22.098;2022-12-10T00:29:00;14.23;85.02
70826;SHT31;58446;41.490;22.098;2022-12-10T00:31:32;14.23;84.79
70826;SHT31;58446;41.490;22.098;2022-12-10T00:34:00;14.25;84.97
70826;SHT31;58446;41.490;22.098;2022-12-10T00:36:29;14.23;84.97
70826;SHT31;58446;41.490;22.098;2022-12-10T00:38:55;14.22;85.12
70826;SHT31;58446;41.490;22.098;2022-12-10T00:41:22;14.22;85.24
70826;SHT31;58446;41.490;22.098;2022-12-10T00:43:48;14.16;85.63
70826;SHT31;58446;41.490;22.098;2022-12-10T00:46:15;14.10;85.63
70826;SHT31;58446;41.490;22.098;2022-12-10T00:48:42;14.10;85.54
70826;SHT31;58446;41.490;22.098;2022-12-10T00:51:14;14.13;85.60
70826;SHT31;58446;41.490;22.098;2022-12-10T00:53:41;14.16;85.22
70826;SHT31;58446;41.490;22.098;2022-12-10T00:56:08;14.15;85.16
70826;SHT31;58446;41.490;22.098;2022-12-10T00:58:35;14.15;85.22
70826;SHT31;58446;41.490;22.098;2022-12-10T01:03:41;14.25;84.19
70826;SHT31;58446;41.490;22.098;2022-12-10T01:06:17;14.32;84.07
70826;SHT31;58446;41.490;22.098;2022-12-10T01:08:44;14.32;83.96
70826;SHT31;58446;41.490;22.098;2022-12-10T01:11:11;14.33;84.02
70826;SHT31;58446;41.490;22.098;2022-12-10T01:13:38;14.32;83.91
70826;SHT31;58446;41.490;22.098;2022-12-10T01:16:05;14.34;83.88
70826;SHT31;58446;41.490;22.098;2022-12-10T01:18:31;14.30;84.03
70826;SHT31;58446;41.490;22.098;2022-12-10T01:21:07;14.29;84.09
70826;SHT31;58446;41.490;22.098;2022-12-10T01:23:34;14.30;83.97
70826;SHT31;58446;41.490;22.098;2022-12-10T01:26:04;14.32;83.88
70826;SHT31;58446;41.490;22.098;2022-12-10T01:28:32;14.30;84.08
70826;SHT31;58446;41.490;22.098;2022-12-10T01:31:06;14.33;83.96
70826;SHT31;58446;41.490;22.098;2022-12-10T01:33:32;14.32;84.06
70826;SHT31;58446;41.490;22.098;2022-12-10T01:36:21;14.32;84.05
70826;SHT31;58446;41.490;22.098;2022-12-10T01:38:47;14.30;83.98
70826;SHT31;58446;41.490;22.098;2022-12-10T01:41:24;14.26;84.20
70826;SHT31;58446;41.490;22.098;2022-12-10T01:46:39;14.23;84.37
70826;SHT31;58446;41.490;22.098;2022-12-10T01:49:08;14.23;84.26
70826;SHT31;58446;41.490;22.098;2022-12-10T01:51:37;14.29;84.45
70826;SHT31;58446;41.490;22.098;2022-12-10T01:54:06;14.23;84.38
70826;SHT31;58446;41.490;22.098;2022-12-10T01:56:36;14.32;84.30
70826;SHT31;58446;41.490;22.098;2022-12-10T01:59:03;14.29;84.29
70826;SHT31;58446;41.490;22.098;2022-12-10T02:09:42;14.29;84.53
70826;SHT31;58446;41.490;22.098;2022-12-10T02:12:46;14.30;84.48
70826;SHT31;58446;41.490;22.098;2022-12-10T02:15:16;14.32;84.42
70826;SHT31;58446;41.490;22.098;2022-12-10T02:17:52;14.29;84.53
70826;SHT31;58446;41.490;22.098;2022-12-10T02:20:24;14.30;84.59
70826;SHT31;58446;41.490;22.098;2022-12-10T02:22:59;14.30;84.49
70826;SHT31;58446;41.490;22.098;2022-12-10T02:25:36;14.32;84.53
70826;SHT31;58446;41.490;22.098;2022-12-10T02:28:13;14.30;84.46
70826;SHT31;58446;41.490;22.098;2022-12-10T02:30:39;14.30;84.37
70826;SHT31;58446;41.490;22.098;2022-12-10T02:33:07;14.33;84.19
70826;SHT31;58446;41.490;22.098;2022-12-10T02:35:36;14.33;84.27
70826;SHT31;58446;41.490;22.098;2022-12-10T02:38:11;14.30;84.24
70826;SHT31;58446;41.490;22.098;2022-12-10T02:40:39;14.32;84.28
70826;SHT31;58446;41.490;22.098;2022-12-10T02:43:09;14.27;84.25
70826;SHT31;58446;41.490;22.098;2022-12-10T02:45:35;14.27;84.44
70826;SHT31;58446;41.490;22.098;2022-12-10T02:48:03;14.23;84.57
70826;SHT31;58446;41.490;22.098;2022-12-10T02:50:29;14.29;84.23
70826;SHT31;58446;41.490;22.098;2022-12-10T02:52:55;14.29;84.23
70826;SHT31;58446;41.490;22.098;2022-12-10T02:55:21;14.29;84.34
70826;SHT31;58446;41.490;22.098;2022-12-10T02:58:14;14.29;84.22
70826;SHT31;58446;41.490;22.098;2022-12-10T03:01:02;14.32;84.21
70826;SHT31;58446;41.490;22.098;2022-12-10T03:03:37;14.29;84.33
70826;SHT31;58446;41.490;22.098;2022-12-10T03:06:20;14.27;84.31
70826;SHT31;58446;41.490;22.098;2022-12-10T03:08:56;14.29;84.23
70826;SHT31;58446;41.490;22.098;2022-12-10T03:11:25;14.34;84.04
70826;SHT31;58446;41.490;22.098;2022-12-10T03:14:03;14.34;83.99
70826;SHT31;58446;41.490;22.098;2022-12-10T03:16:37;14.37;83.86
70826;SHT31;58446;41.490;22.098;2022-12-10T03:19:11;14.37;83.91
70826;SHT31;58446;41.490;22.098;2022-12-10T03:21:37;14.40;84.00
70826;SHT31;58446;41.490;22.098;2022-12-10T03:24:05;14.39;84.15
70826;SHT31;58446;41.490;22.098;2022-12-10T03:26:32;14.36;84.35
70826;SHT31;58446;41.490;22.098;2022-12-10T03:29:12;14.33;84.63
70826;SHT31;58446;41.490;22.098;2022-12-10T03:31:41;14.30;84.74
70826;SHT31;58446;41.490;22.098;2022-12-10T03:34:09;14.29;84.80
70826;SHT31;58446;41.490;22.098;2022-12-10T03:36:36;14.26;84.91
70826;SHT31;58446;41.490;22.098;2022-12-10T03:39:03;14.29;84.86
70826;SHT31;58446;41.490;22.098;2022-12-10T03:41:30;14.26;85.15
70826;SHT31;58446;41.490;22.098;2022-12-10T03:43:57;14.20;85.27
70826;SHT31;58446;41.490;22.098;2022-12-10T03:46:24;14.19;85.42
70826;SHT31;58446;41.490;22.098;2022-12-10T03:48:51;14.16;85.72
70826;SHT31;58446;41.490;22.098;2022-12-10T03:51:17;14.10;86.09
70826;SHT31;58446;41.490;22.098;2022-12-10T03:53:43;14.06;86.22
70826;SHT31;58446;41.490;22.098;2022-12-10T03:56:09;14.04;86.27
70826;SHT31;58446;41.490;22.098;2022-12-10T03:58:34;14.04;86.19
70826;SHT31;58446;41.490;22.098;2022-12-10T04:01:02;14.02;86.25
70826;SHT31;58446;41.490;22.098;2022-12-10T04:03:28;13.99;86.34
70826;SHT31;58446;41.490;22.098;2022-12-10T04:05:53;14.06;86.16
70826;SHT31;58446;41.490;22.098;2022-12-10T04:08:19;14.04;86.15
70826;SHT31;58446;41.490;22.098;2022-12-10T04:10:44;14.06;86.16
70826;SHT31;58446;41.490;22.098;2022-12-10T04:13:10;14.08;86.12
70826;SHT31;58446;41.490;22.098;2022-12-10T04:15:56;14.06;86.32
70826;SHT31;58446;41.490;22.098;2022-12-10T04:18:40;14.02;86.48
70826;SHT31;58446;41.490;22.098;2022-12-10T04:21:06;14.02;86.52
70826;SHT31;58446;41.490;22.098;2022-12-10T04:23:50;13.99;86.92
70826;SHT31;58446;41.490;22.098;2022-12-10T04:26:34;13.99;86.98
70826;SHT31;58446;41.490;22.098;2022-12-10T04:29:28;14.01;87.00
70826;SHT31;58446;41.490;22.098;2022-12-10T04:31:55;14.02;86.83
70826;SHT31;58446;41.490;22.098;2022-12-10T04:34:21;13.96;87.02
70826;SHT31;58446;41.490;22.098;2022-12-10T04:36:47;13.98;87.04
70826;SHT31;58446;41.490;22.098;2022-12-10T04:39:13;14.01;87.12
70826;SHT31;58446;41.490;22.098;2022-12-10T04:41:41;14.02;86.85
70826;SHT31;58446;41.490;22.098;2022-12-10T04:44:07;14.06;86.85
70826;SHT31;58446;41.490;22.098;2022-12-10T04:46:34;14.02;86.94
70826;SHT31;58446;41.490;22.098;2022-12-10T04:48:59;14.04;86.80
70826;SHT31;58446;41.490;22.098;2022-12-10T04:51:25;14.06;86.59
70826;SHT31;58446;41.490;22.098;2022-12-10T04:53:51;14.10;86.30
70826;SHT31;58446;41.490;22.098;2022-12-10T04:56:17;14.16;86.39
70826;SHT31;58446;41.490;22.098;2022-12-10T04:58:42;14.13;86.36
70826;SHT31;58446;41.490;22.098;2022-12-10T05:01:10;14.19;86.40
70826;SHT31;58446;41.490;22.098;2022-12-10T05:03:37;14.17;86.41
70826;SHT31;58446;41.490;22.098;2022-12-10T05:06:08;14.16;86.44
70826;SHT31;58446;41.490;22.098;2022-12-10T05:08:37;14.20;86.09
70826;SHT31;58446;41.490;22.098;2022-12-10T05:11:04;14.20;86.19
70826;SHT31;58446;41.490;22.098;2022-12-10T05:13:30;14.23;86.15
70826;SHT31;58446;41.490;22.098;2022-12-10T05:15:56;14.20;86.24
70826;SHT31;58446;41.490;22.098;2022-12-10T05:18:21;14.19;86.06
70826;SHT31;58446;41.490;22.098;2022-12-10T05:20:47;14.26;85.97
70826;SHT31;58446;41.490;22.098;2022-12-10T05:23:13;14.20;86.01
70826;SHT31;58446;41.490;22.098;2022-12-10T05:26:22;14.32;85.71
70826;SHT31;58446;41.490;22.098;2022-12-10T05:28:49;14.26;85.84
70826;SHT31;58446;41.490;22.098;2022-12-10T05:31:24;14.27;85.90
70826;SHT31;58446;41.490;22.098;2022-12-10T05:33:51;14.29;85.86
70826;SHT31;58446;41.490;22.098;2022-12-10T05:36:23;14.27;85.87
70826;SHT31;58446;41.490;22.098;2022-12-10T05:38:49;14.27;85.88
70826;SHT31;58446;41.490;22.098;2022-12-10T05:41:17;14.32;85.83
70826;SHT31;58446;41.490;22.098;2022-12-10T05:43:44;14.30;85.89
70826;SHT31;58446;41.490;22.098;2022-12-10T05:46:13;14.30;85.86
70826;SHT31;58446;41.490;22.098;2022-12-10T05:48:39;14.26;86.03
70826;SHT31;58446;41.490;22.098;2022-12-10T05:51:09;14.23;86.25
70826;SHT31;58446;41.490;22.098;2022-12-10T05:53:35;14.25;86.13
70826;SHT31;58446;41.490;22.098;2022-12-10T05:56:03;14.27;85.83
70826;SHT31;58446;41.490;22.098;2022-12-10T05:58:30;14.26;85.89
70826;SHT31;58446;41.490;22.098;2022-12-10T06:00:59;14.27;85.84
70826;SHT31;58446;41.490;22.098;2022-12-10T06:03:26;14.25;85.78
70826;SHT31;58446;41.490;22.098;2022-12-10T06:05:53;14.25;85.81
70826;SHT31;58446;41.490;22.098;2022-12-10T06:08:18;14.26;85.69
70826;SHT31;58446;41.490;22.098;2022-12-10T06:10:44;14.29;85.74
70826;SHT31;58446;41.490;22.098;2022-12-10T06:13:10;14.30;85.59
70826;SHT31;58446;41.490;22.098;2022-12-10T06:15:38;14.36;85.46
70826;SHT31;58446;41.490;22.098;2022-12-10T06:18:04;14.36;85.40
70826;SHT31;58446;41.490;22.098;2022-12-10T06:20:30;14.34;85.41
70826;SHT31;58446;41.490;22.098;2022-12-10T06:22:56;14.40;85.31
70826;SHT31;58446;41.490;22.098;2022-12-10T06:25:21;14.41;85.17
70826;SHT31;58446;41.490;22.098;2022-12-10T06:27:47;14.46;85.04
70826;SHT31;58446;41.490;22.098;2022-12-10T06:30:13;14.48;84.94
70826;SHT31;58446;41.490;22.098;2022-12-10T06:32:38;14.44;85.21
70826;SHT31;58446;41.490;22.098;2022-12-10T06:35:05;14.48;85.17
70826;SHT31;58446;41.490;22.098;2022-12-10T06:37:30;14.48;85.00
70826;SHT31;58446;41.490;22.098;2022-12-10T06:39:56;14.50;85.00
70826;SHT31;58446;41.490;22.098;2022-12-10T06:42:22;14.50;84.97
70826;SHT31;58446;41.490;22.098;2022-12-10T06:44:47;14.50;85.07
70826;SHT31;58446;41.490;22.098;2022-12-10T06:47:13;14.55;84.71
70826;SHT31;58446;41.490;22.098;2022-12-10T06:49:40;14.57;84.68
70826;SHT31;58446;41.490;22.098;2022-12-10T06:52:06;14.59;84.72
70826;SHT31;58446;41.490;22.098;2022-12-10T06:54:31;14.53;84.81
70826;SHT31;58446;41.490;22.098;2022-12-10T06:56:57;14.57;84.42
70826;SHT31;58446;41.490;22.098;2022-12-10T06:59:23;14.59;84.44
70826;SHT31;58446;41.490;22.098;2022-12-10T07:01:49;14.61;84.22
70826;SHT31;58446;41.490;22.098;2022-12-10T07:04:15;14.57;84.25
70826;SHT31;58446;41.490;22.098;2022-12-10T07:06:42;14.55;84.42
70826;SHT31;58446;41.490;22.098;2022-12-10T07:09:08;14.59;84.10
70826;SHT31;58446;41.490;22.098;2022-12-10T07:11:34;14.59;84.11
70826;SHT31;58446;41.490;22.098;2022-12-10T07:14:00;14.57;84.36
70826;SHT31;58446;41.490;22.098;2022-12-10T07:16:28;14.59;84.12
70826;SHT31;58446;41.490;22.098;2022-12-10T07:18:56;14.61;83.91
70826;SHT31;58446;41.490;22.098;2022-12-10T07:21:26;14.61;83.97
70826;SHT31;58446;41.490;22.098;2022-12-10T07:23:53;14.60;83.97
70826;SHT31;58446;41.490;22.098;2022-12-10T07:26:20;14.64;83.82
70826;SHT31;58446;41.490;22.098;2022-12-10T07:28:46;14.64;83.81
70826;SHT31;58446;41.490;22.098;2022-12-10T07:31:12;14.61;83.82
70826;SHT31;58446;41.490;22.098;2022-12-10T07:33:37;14.70;83.70
70826;SHT31;58446;41.490;22.098;2022-12-10T07:36:05;14.68;83.65
70826;SHT31;58446;41.490;22.098;2022-12-10T07:38:31;14.67;83.77
70826;SHT31;58446;41.490;22.098;2022-12-10T07:40:57;14.71;83.43
70826;SHT31;58446;41.490;22.098;2022-12-10T07:43:23;14.68;83.49
70826;SHT31;58446;41.490;22.098;2022-12-10T07:45:48;14.76;83.37
70826;SHT31;58446;41.490;22.098;2022-12-10T07:48:14;14.80;82.94
70826;SHT31;58446;41.490;22.098;2022-12-10T07:50:40;14.83;83.07
70826;SHT31;58446;41.490;22.098;2022-12-10T07:53:06;14.87;82.91
70826;SHT31;58446;41.490;22.098;2022-12-10T07:55:31;14.89;82.58
70826;SHT31;58446;41.490;22.098;2022-12-10T07:57:57;14.89;82.66
70826;SHT31;58446;41.490;22.098;2022-12-10T08:00:23;14.92;82.51
70826;SHT31;58446;41.490;22.098;2022-12-10T08:02:48;14.99;82.15
70826;SHT31;58446;41.490;22.098;2022-12-10T08:05:14;14.95;82.30
70826;SHT31;58446;41.490;22.098;2022-12-10T08:07:39;15.02;81.97
70826;SHT31;58446;41.490;22.098;2022-12-10T08:10:06;15.02;82.10
70826;SHT31;58446;41.490;22.098;2022-12-10T08:12:32;15.07;82.02
70826;SHT31;58446;41.490;22.098;2022-12-10T08:14:58;15.05;81.91
70826;SHT31;58446;41.490;22.098;2022-12-10T08:17:23;15.08;81.85
70826;SHT31;58446;41.490;22.098;2022-12-10T08:19:49;15.07;81.90
70826;SHT31;58446;41.490;22.098;2022-12-10T08:22:16;15.09;81.92
70826;SHT31;58446;41.490;22.098;2022-12-10T08:24:42;15.12;81.75
70826;SHT31;58446;41.490;22.098;2022-12-10T08:27:07;15.14;81.27
70826;SHT31;58446;41.490;22.098;2022-12-10T08:29:33;15.15;81.31
70826;SHT31;58446;41.490;22.098;2022-12-10T08:31:59;15.15;80.95
70826;SHT31;58446;41.490;22.098;2022-12-10T08:34:24;15.21;80.64
70826;SHT31;58446;41.490;22.098;2022-12-10T08:36:50;15.17;80.74
70826;SHT31;58446;41.490;22.098;2022-12-10T08:39:15;15.19;80.58
70826;SHT31;58446;41.490;22.098;2022-12-10T08:41:43;15.21;80.29
70826;SHT31;58446;41.490;22.098;2022-12-10T08:44:10;15.25;79.80
70826;SHT31;58446;41.490;22.098;2022-12-10T08:46:36;15.25;79.91
70826;SHT31;58446;41.490;22.098;2022-12-10T08:49:02;15.25;80.01
70826;SHT31;58446;41.490;22.098;2022-12-10T08:51:27;15.25;79.77
70826;SHT31;58446;41.490;22.098;2022-12-10T08:53:54;15.29;79.76
70826;SHT31;58446;41.490;22.098;2022-12-10T08:56:20;15.31;79.37
70826;SHT31;58446;41.490;22.098;2022-12-10T08:58:45;15.32;79.41
70826;SHT31;58446;41.490;22.098;2022-12-10T09:01:14;15.34;79.30
70826;SHT31;58446;41.490;22.098;2022-12-10T09:03:39;15.39;79.38
70826;SHT31;58446;41.490;22.098;2022-12-10T09:06:07;15.39;79.20
70826;SHT31;58446;41.490;22.098;2022-12-10T09:08:34;15.46;79.07
70826;SHT31;58446;41.490;22.098;2022-12-10T09:11:11;15.52;78.75
70826;SHT31;58446;41.490;22.098;2022-12-10T09:13:37;15.55;78.67
70826;SHT31;58446;41.490;22.098;2022-12-10T09:16:03;15.66;78.32
70826;SHT31;58446;41.490;22.098;2022-12-10T09:18:28;15.71;78.03
70826;SHT31;58446;41.490;22.098;2022-12-10T09:20:54;15.76;77.61
70826;SHT31;58446;41.490;22.098;2022-12-10T09:23:20;15.90;77.60
70826;SHT31;58446;41.490;22.098;2022-12-10T09:25:45;16.03;77.22
70826;SHT31;58446;41.490;22.098;2022-12-10T09:28:11;16.16;76.66
70826;SHT31;58446;41.490;22.098;2022-12-10T09:30:36;16.20;76.36
70826;SHT31;58446;41.490;22.098;2022-12-10T09:33:02;16.20;76.43
70826;SHT31;58446;41.490;22.098;2022-12-10T09:35:28;16.20;76.99
70826;SHT31;58446;41.490;22.098;2022-12-10T09:37:54;16.11;76.28
70826;SHT31;58446;41.490;22.098;2022-12-10T09:40:29;16.08;76.48
70826;SHT31;58446;41.490;22.098;2022-12-10T09:43:04;16.04;76.73
70826;SHT31;58446;41.490;22.098;2022-12-10T09:45:55;16.03;76.63
70826;SHT31;58446;41.490;22.098;2022-12-10T09:48:34;16.03;76.64
70826;SHT31;58446;41.490;22.098;2022-12-10T09:51:21;16.01;76.65
70826;SHT31;58446;41.490;22.098;2022-12-10T09:53:48;15.97;76.86
70826;SHT31;58446;41.490;22.098;2022-12-10T09:56:23;15.94;76.75
70826;SHT31;58446;41.490;22.098;2022-12-10T09:58:50;15.93;76.91
70826;SHT31;58446;41.490;22.098;2022-12-10T10:01:18;15.87;76.97
70826;SHT31;58446;41.490;22.098;2022-12-10T10:03:45;15.90;76.60
70826;SHT31;58446;41.490;22.098;2022-12-10T10:06:14;15.90;76.77
70826;SHT31;58446;41.490;22.098;2022-12-10T10:08:45;15.89;76.54
70826;SHT31;58446;41.490;22.098;2022-12-10T10:11:22;15.90;76.69
70826;SHT31;58446;41.490;22.098;2022-12-10T10:14:00;15.87;76.75
70826;SHT31;58446;41.490;22.098;2022-12-10T10:16:43;15.86;76.67
70826;SHT31;58446;41.490;22.098;2022-12-10T10:19:15;15.86;76.88
70826;SHT31;58446;41.490;22.098;2022-12-10T10:21:50;15.85;77.13
70826;SHT31;58446;41.490;22.098;2022-12-10T10:24:19;15.82;77.23
70826;SHT31;58446;41.490;22.098;2022-12-10T10:26:46;15.80;77.17
70826;SHT31;58446;41.490;22.098;2022-12-10T10:29:15;15.79;77.30
70826;SHT31;58446;41.490;22.098;2022-12-10T10:31:42;15.76;77.27
70826;SHT31;58446;41.490;22.098;2022-12-10T10:34:19;15.74;77.20
70826;SHT31;58446;41.490;22.098;2022-12-10T10:36:45;15.73;77.57
70826;SHT31;58446;41.490;22.098;2022-12-10T10:39:29;15.70;77.44
70826;SHT31;58446;41.490;22.098;2022-12-10T10:41:57;15.69;77.51
70826;SHT31;58446;41.490;22.098;2022-12-10T10:44:26;15.65;77.67
70826;SHT31;58446;41.490;22.098;2022-12-10T10:46:54;15.65;77.77
70826;SHT31;58446;41.490;22.098;2022-12-10T10:49:28;15.67;77.63
70826;SHT31;58446;41.490;22.098;2022-12-10T10:52:13;15.66;77.72
70826;SHT31;58446;41.490;22.098;2022-12-10T10:54:46;15.67;77.73
70826;SHT31;58446;41.490;22.098;2022-12-10T10:57:25;15.65;77.96
70826;SHT31;58446;41.490;22.098;2022-12-10T11:00:00;15.63;77.87
70826;SHT31;58446;41.490;22.098;2022-12-10T11:02:33;15.60;78.02
70826;SHT31;58446;41.490;22.098;2022-12-10T11:07:57;15.60;77.57
70826;SHT31;58446;41.490;22.098;2022-12-10T11:10:24;15.63;77.43
70826;SHT31;58446;41.490;22.098;2022-12-10T11:12:58;15.63;77.51
70826;SHT31;58446;41.490;22.098;2022-12-10T11:15:39;15.62;77.47
70826;SHT31;58446;41.490;22.098;2022-12-10T11:18:32;15.59;77.65
70826;SHT31;58446;41.490;22.098;2022-12-10T11:21:17;15.59;77.35
70826;SHT31;58446;41.490;22.098;2022-12-10T11:24:11;15.55;77.59
70826;SHT31;58446;41.490;22.098;2022-12-10T11:27:07;15.58;77.46
70826;SHT31;58446;41.490;22.098;2022-12-10T11:29:51;15.60;77.25
70826;SHT31;58446;41.490;22.098;2022-12-10T11:35:21;15.65;77.59
70826;SHT31;58446;41.490;22.098;2022-12-10T11:46:53;15.56;77.82
70826;SHT31;58446;41.490;22.098;2022-12-10T11:57:03;15.58;78.95
70826;SHT31;58446;41.490;22.098;2022-12-10T11:59:42;15.53;78.91
70826;SHT31;58446;41.490;22.098;2022-12-10T12:05:20;15.52;78.45
70826;SHT31;58446;41.490;22.098;2022-12-10T12:08:14;15.49;78.44
70826;SHT31;58446;41.490;22.098;2022-12-10T12:13:20;15.50;78.55
70826;SHT31;58446;41.490;22.098;2022-12-10T12:15:52;15.52;78.63
70826;SHT31;58446;41.490;22.098;2022-12-10T12:18:23;15.49;78.66
70826;SHT31;58446;41.490;22.098;2022-12-10T12:21:04;15.50;78.39
70826;SHT31;58446;41.490;22.098;2022-12-10T12:23:41;15.49;78.43
70826;SHT31;58446;41.490;22.098;2022-12-10T12:26:32;15.48;78.36
70826;SHT31;58446;41.490;22.098;2022-12-10T12:31:53;15.45;78.68
70826;SHT31;58446;41.490;22.098;2022-12-10T12:35:02;15.39;78.96
70826;SHT31;58446;41.490;22.098;2022-12-10T12:37:56;15.39;78.97
70826;SHT31;58446;41.490;22.098;2022-12-10T12:40:23;15.38;79.29
70826;SHT31;58446;41.490;22.098;2022-12-10T12:43:16;15.34;79.55
70826;SHT31;58446;41.490;22.098;2022-12-10T12:45:45;15.31;79.98
70826;SHT31;58446;41.490;22.098;2022-12-10T12:48:23;15.28;80.62
70826;SHT31;58446;41.490;22.098;2022-12-10T12:50:58;15.27;79.98
70826;SHT31;58446;41.490;22.098;2022-12-10T12:53:24;15.29;79.91
70826;SHT31;58446;41.490;22.098;2022-12-10T12:56:07;15.28;79.83
70826;SHT31;58446;41.490;22.098;2022-12-10T12:59:00;15.29;79.98
70826;SHT31;58446;41.490;22.098;2022-12-10T13:01:57;15.25;80.37
70826;SHT31;58446;41.490;22.098;2022-12-10T13:04:24;15.28;80.20
70826;SHT31;58446;41.490;22.098;2022-12-10T13:09:43;15.31;80.23
70826;SHT31;58446;41.490;22.098;2022-12-10T13:14:54;15.24;81.13
70826;SHT31;58446;41.490;22.098;2022-12-10T13:17:35;15.19;81.37
70826;SHT31;58446;41.490;22.098;2022-12-10T13:23:46;15.12;81.39
70826;SHT31;58446;41.490;22.098;2022-12-10T13:41:31;15.12;81.71
70826;SHT31;58446;41.490;22.098;2022-12-10T13:44:48;15.09;82.15
70826;SHT31;58446;41.490;22.098;2022-12-10T13:47:43;15.05;82.10
70826;SHT31;58446;41.490;22.098;2022-12-10T13:50:39;15.02;82.17
70826;SHT31;58446;41.490;22.098;2022-12-10T14:04:45;14.91;83.65
70826;SHT31;58446;41.490;22.098;2022-12-10T14:07:17;14.87;83.86
70826;SHT31;58446;41.490;22.098;2022-12-10T14:09:57;14.81;83.96
70826;SHT31;58446;41.490;22.098;2022-12-10T14:12:37;14.80;84.39
70826;SHT31;58446;41.490;22.098;2022-12-10T14:15:25;14.76;84.38
70826;SHT31;58446;41.490;22.098;2022-12-10T14:18:11;14.73;84.64
70826;SHT31;58446;41.490;22.098;2022-12-10T14:20:45;14.67;84.94
70826;SHT31;58446;41.490;22.098;2022-12-10T14:23:26;14.64;85.08
70826;SHT31;58446;41.490;22.098;2022-12-10T14:26:19;14.63;85.12
70826;SHT31;58446;41.490;22.098;2022-12-10T14:28:53;14.60;84.95
70826;SHT31;58446;41.490;22.098;2022-12-10T14:31:27;14.60;85.17
70826;SHT31;58446;41.490;22.098;2022-12-10T14:33:59;14.60;85.00
70826;SHT31;58446;41.490;22.098;2022-12-10T14:36:31;14.59;85.23
70826;SHT31;58446;41.490;22.098;2022-12-10T14:38:58;14.59;85.20
70826;SHT31;58446;41.490;22.098;2022-12-10T14:41:26;14.57;85.28
70826;SHT31;58446;41.490;22.098;2022-12-10T14:43:53;14.55;85.58
70826;SHT31;58446;41.490;22.098;2022-12-10T14:46:23;14.51;85.41
70826;SHT31;58446;41.490;22.098;2022-12-10T14:48:50;14.50;85.49
70826;SHT31;58446;41.490;22.098;2022-12-10T14:51:22;14.51;85.73
70826;SHT31;58446;41.490;22.098;2022-12-10T14:53:50;14.51;85.81
70826;SHT31;58446;41.490;22.098;2022-12-10T14:56:29;14.48;85.96
70826;SHT31;58446;41.490;22.098;2022-12-10T14:59:02;14.47;85.95
70826;SHT31;58446;41.490;22.098;2022-12-10T15:01:32;14.44;86.24
70826;SHT31;58446;41.490;22.098;2022-12-10T15:04:01;14.46;86.17
70826;SHT31;58446;41.490;22.098;2022-12-10T15:06:31;14.50;86.01
70826;SHT31;58446;41.490;22.098;2022-12-10T15:08:58;14.44;86.23
70826;SHT31;58446;41.490;22.098;2022-12-10T15:11:25;14.44;86.61
70826;SHT31;58446;41.490;22.098;2022-12-10T15:13:57;14.43;86.47
70826;SHT31;58446;41.490;22.098;2022-12-10T15:18:54;14.41;86.17
70826;SHT31;58446;41.490;22.098;2022-12-10T15:21:24;14.48;85.77
70826;SHT31;58446;41.490;22.098;2022-12-10T15:24:06;14.51;85.56
70826;SHT31;58446;41.490;22.098;2022-12-10T15:26:32;14.51;85.62
70826;SHT31;58446;41.490;22.098;2022-12-10T15:32:06;14.51;85.65
70826;SHT31;58446;41.490;22.098;2022-12-10T15:34:41;14.53;85.44
70826;SHT31;58446;41.490;22.098;2022-12-10T15:37:16;14.53;85.51
70826;SHT31;58446;41.490;22.098;2022-12-10T15:39:46;14.55;85.51
70826;SHT31;58446;41.490;22.098;2022-12-10T15:42:36;14.51;85.65
70826;SHT31;58446;41.490;22.098;2022-12-10T15:45:24;14.56;85.29
70826;SHT31;58446;41.490;22.098;2022-12-10T15:47:59;14.53;85.36
70826;SHT31;58446;41.490;22.098;2022-12-10T15:50:25;14.55;85.37
70826;SHT31;58446;41.490;22.098;2022-12-10T15:52:52;14.55;85.28
70826;SHT31;58446;41.490;22.098;2022-12-10T15:55:18;14.53;85.30
70826;SHT31;58446;41.490;22.098;2022-12-10T15:57:44;14.56;85.07
70826;SHT31;58446;41.490;22.098;2022-12-10T16:00:17;14.59;84.51
70826;SHT31;58446;41.490;22.098;2022-12-10T16:05:28;14.60;84.18
70826;SHT31;58446;41.490;22.098;2022-12-10T16:07:58;14.66;83.77
70826;SHT31;58446;41.490;22.098;2022-12-10T16:10:26;14.66;83.57
70826;SHT31;58446;41.490;22.098;2022-12-10T16:13:00;14.66;83.23
70826;SHT31;58446;41.490;22.098;2022-12-10T16:15:30;14.68;83.09
70826;SHT31;58446;41.490;22.098;2022-12-10T16:18:01;14.67;83.05
70826;SHT31;58446;41.490;22.098;2022-12-10T16:20:31;14.68;82.92
70826;SHT31;58446;41.490;22.098;2022-12-10T16:22:58;14.70;82.46
70826;SHT31;58446;41.490;22.098;2022-12-10T16:25:27;14.74;82.17
70826;SHT31;58446;41.490;22.098;2022-12-10T16:27:53;14.73;82.47
70826;SHT31;58446;41.490;22.098;2022-12-10T16:30:20;14.74;82.50
70826;SHT31;58446;41.490;22.098;2022-12-10T16:32:46;14.80;82.14
70826;SHT31;58446;41.490;22.098;2022-12-10T16:35:13;14.81;82.13
70826;SHT31;58446;41.490;22.098;2022-12-10T16:37:46;14.83;81.80
70826;SHT31;58446;41.490;22.098;2022-12-10T16:40:14;14.84;81.73
70826;SHT31;58446;41.490;22.098;2022-12-10T16:42:41;14.81;82.21
70826;SHT31;58446;41.490;22.098;2022-12-10T16:45:28;14.78;82.52
70826;SHT31;58446;41.490;22.098;2022-12-10T16:47:54;14.73;82.69
70826;SHT31;58446;41.490;22.098;2022-12-10T16:50:20;14.77;82.21
70826;SHT31;58446;41.490;22.098;2022-12-10T16:52:46;14.78;82.52
70826;SHT31;58446;41.490;22.098;2022-12-10T16:55:15;14.71;83.16
70826;SHT31;58446;41.490;22.098;2022-12-10T16:57:42;14.70;83.25
70826;SHT31;58446;41.490;22.098;2022-12-10T17:00:10;14.71;83.33
70826;SHT31;58446;41.490;22.098;2022-12-10T17:02:36;14.67;83.69
70826;SHT31;58446;41.490;22.098;2022-12-10T17:05:02;14.66;83.76
70826;SHT31;58446;41.490;22.098;2022-12-10T17:07:28;14.64;83.84